Tastyp, Russia
Current Conditions -  °F | °C
As of 1:30 PM on Saturday 01 Nov 2014 (Local Time) from UNAA Reporting Station
Broken Clouds Broken Clouds  
Wind Chill: 38°   Ceiling: 10000
Heat Index: 45°   Visibility: 6mi
Dew Point: 27°   Wind: 13mph
Humidity: 49%   Direction: 220°SW
Pressure: 30.24"   Gusts: NA
Location:  52.8°N, 89.92°E
Report Text: UNAA 010630Z 22006MPS 9999 SCT026CB BKN100 07/M03 Q1024 NOSIGRMK QFE745 20190055
Loading
Personal Weather Stations






























Interactive Weather Map
Tropical Storm Tracking
New forecast layout! Learn more

10-Day Weather Forecast

Advertisements
Track Severe Weather on mobile